Greater Peoria Regional Airport Peoria US
ICAO: KPIA
IATA: PIA
Category: Large
Scheduled Services: Yes

Elevation: 660 ft
TransAlt. 18000 ft.

Airport Communications:
PEORIA APP/DEP:124.675
ASOS:126.1
ATIS:126.1
GND:121.85
ARNG OPS:32.3
ANG OPS:141.55
KANKAKEE RDO:122.35
PEORIA TWR:119.1
UNICOM:122.95

KPIA Zoom In..

Runways:

(A) RW 04 length 8004 ft width 150 ft
ILS 110.55 / hdg 38

(B) RW 13 length 10104 ft width 150 ft
ILS 109.90 / hdg 126

(C) RW 22 length 8004 ft width 150 ft
---- / hdg 218

(D) RW 31 length 10104 ft width 150 ft
ILS 109.90 / hdg 306

Location; KPIA
Day. 23 / Time. 07.54 Zulu
* Altimeter: 29.96
* Temperature: 19° c. 66.2°f.
* Wind from: 340° Speed 03 kn.
Dewpoint: 18° c.
Visibility: 5 Statute Miles.
Clouds: Clear (automated report).
Conditions: Mist.

KPIA 230754Z 34003KT 5SM BR CLR 19/18 A2996 RMK AO2 SLP140 T01890183


Wind From 340°
Speed 03 kn.

 
 
jpsmedia.com for Web Design worldairports.se 2018   terms of use